sensor_id;sensor_type;location;lat;lon;timestamp;temperature;humidity
19449;DHT22;9863;49.404;8.246;2022-08-19T00:04:30;20.90;99.90
19449;DHT22;9863;49.404;8.246;2022-08-19T00:09:29;20.90;99.90
19449;DHT22;9863;49.404;8.246;2022-08-19T00:19:24;20.80;99.90
19449;DHT22;9863;49.404;8.246;2022-08-19T00:26:49;20.80;99.90
19449;DHT22;9863;49.404;8.246;2022-08-19T00:29:19;20.90;99.90
19449;DHT22;9863;49.404;8.246;2022-08-19T00:31:48;21.00;99.90
19449;DHT22;9863;49.404;8.246;2022-08-19T00:36:45;20.90;99.90
19449;DHT22;9863;49.404;8.246;2022-08-19T00:39:15;21.00;99.90
19449;DHT22;9863;49.404;8.246;2022-08-19T00:41:44;20.80;99.90
19449;DHT22;9863;49.404;8.246;2022-08-19T00:46:55;20.90;99.90
19449;DHT22;9863;49.404;8.246;2022-08-19T00:49:34;20.30;99.90
19449;DHT22;9863;49.404;8.246;2022-08-19T00:52:17;20.70;99.90
19449;DHT22;9863;49.404;8.246;2022-08-19T00:57:24;20.80;99.90
19449;DHT22;9863;49.404;8.246;2022-08-19T00:59:59;20.90;99.90
19449;DHT22;9863;49.404;8.246;2022-08-19T01:02:31;20.70;99.90
19449;DHT22;9863;49.404;8.246;2022-08-19T01:05:03;20.90;99.90
19449;DHT22;9863;49.404;8.246;2022-08-19T01:07:35;20.80;99.90
19449;DHT22;9863;49.404;8.246;2022-08-19T01:10:12;20.90;99.90
19449;DHT22;9863;49.404;8.246;2022-08-19T01:15:15;20.80;99.90
19449;DHT22;9863;49.404;8.246;2022-08-19T01:17:45;21.00;99.90
19449;DHT22;9863;49.404;8.246;2022-08-19T01:20:17;20.80;99.90
19449;DHT22;9863;49.404;8.246;2022-08-19T01:25:23;20.70;99.90
19449;DHT22;9863;49.404;8.246;2022-08-19T01:33:10;21.00;99.90
19449;DHT22;9863;49.404;8.246;2022-08-19T01:38:10;20.80;99.90
19449;DHT22;9863;49.404;8.246;2022-08-19T01:55:42;20.70;99.90
19449;DHT22;9863;49.404;8.246;2022-08-19T01:58:18;20.70;99.90
19449;DHT22;9863;49.404;8.246;2022-08-19T02:10:43;20.70;99.90
19449;DHT22;9863;49.404;8.246;2022-08-19T02:13:12;20.40;99.90
19449;DHT22;9863;49.404;8.246;2022-08-19T02:18:09;20.70;99.90
19449;DHT22;9863;49.404;8.246;2022-08-19T02:20:39;20.60;99.90
19449;DHT22;9863;49.404;8.246;2022-08-19T02:23:09;20.40;99.90
19449;DHT22;9863;49.404;8.246;2022-08-19T02:25:41;20.70;99.90
19449;DHT22;9863;49.404;8.246;2022-08-19T02:30:45;20.60;99.90
19449;DHT22;9863;49.404;8.246;2022-08-19T02:35:45;20.40;99.90
19449;DHT22;9863;49.404;8.246;2022-08-19T02:38:14;20.70;99.90
19449;DHT22;9863;49.404;8.246;2022-08-19T02:41:07;20.60;99.90
19449;DHT22;9863;49.404;8.246;2022-08-19T02:46:29;20.60;99.90
19449;DHT22;9863;49.404;8.246;2022-08-19T02:49:05;20.40;99.90
19449;DHT22;9863;49.404;8.246;2022-08-19T02:51:39;20.70;99.90
19449;DHT22;9863;49.404;8.246;2022-08-19T02:54:10;20.60;99.90
19449;DHT22;9863;49.404;8.246;2022-08-19T02:56:40;20.60;99.90
19449;DHT22;9863;49.404;8.246;2022-08-19T03:01:40;20.60;99.90
19449;DHT22;9863;49.404;8.246;2022-08-19T03:04:12;20.60;99.90
19449;DHT22;9863;49.404;8.246;2022-08-19T03:06:45;20.60;99.90
19449;DHT22;9863;49.404;8.246;2022-08-19T03:16:45;20.60;99.90
19449;DHT22;9863;49.404;8.246;2022-08-19T03:19:18;20.60;99.90
19449;DHT22;9863;49.404;8.246;2022-08-19T03:24:18;20.90;99.90
19449;DHT22;9863;49.404;8.246;2022-08-19T03:26:52;20.50;99.90
19449;DHT22;9863;49.404;8.246;2022-08-19T03:29:27;20.50;99.90
19449;DHT22;9863;49.404;8.246;2022-08-19T03:31:59;20.50;99.90
19449;DHT22;9863;49.404;8.246;2022-08-19T03:34:33;20.50;99.90
19449;DHT22;9863;49.404;8.246;2022-08-19T03:37:09;20.50;99.90
19449;DHT22;9863;49.404;8.246;2022-08-19T03:39:41;20.50;99.90
19449;DHT22;9863;49.404;8.246;2022-08-19T03:42:10;20.50;99.90
19449;DHT22;9863;49.404;8.246;2022-08-19T04:02:40;20.60;99.90
19449;DHT22;9863;49.404;8.246;2022-08-19T04:05:28;20.50;99.90
19449;DHT22;9863;49.404;8.246;2022-08-19T04:10:27;20.50;99.90
19449;DHT22;9863;49.404;8.246;2022-08-19T04:17:51;20.50;99.90
19449;DHT22;9863;49.404;8.246;2022-08-19T04:30:14;20.30;99.90
19449;DHT22;9863;49.404;8.246;2022-08-19T04:50:56;20.40;99.90
19449;DHT22;9863;49.404;8.246;2022-08-19T04:53:28;22.40;99.90
19449;DHT22;9863;49.404;8.246;2022-08-19T04:56:08;20.80;99.90
19449;DHT22;9863;49.404;8.246;2022-08-19T04:58:39;20.40;99.90
19449;DHT22;9863;49.404;8.246;2022-08-19T05:01:17;19.90;99.90
19449;DHT22;9863;49.404;8.246;2022-08-19T05:06:16;20.60;99.90
19449;DHT22;9863;49.404;8.246;2022-08-19T05:08:46;20.50;99.90
19449;DHT22;9863;49.404;8.246;2022-08-19T05:11:27;20.60;99.90
19449;DHT22;9863;49.404;8.246;2022-08-19T05:16:27;20.60;99.90
19449;DHT22;9863;49.404;8.246;2022-08-19T05:21:42;20.60;99.90
19449;DHT22;9863;49.404;8.246;2022-08-19T05:29:27;20.70;99.90
19449;DHT22;9863;49.404;8.246;2022-08-19T05:32:05;20.70;99.90
19449;DHT22;9863;49.404;8.246;2022-08-19T05:34:36;20.70;99.90
19449;DHT22;9863;49.404;8.246;2022-08-19T05:39:36;20.90;99.90
19449;DHT22;9863;49.404;8.246;2022-08-19T05:42:07;20.80;99.90
19449;DHT22;9863;49.404;8.246;2022-08-19T05:44:39;20.90;99.90
19449;DHT22;9863;49.404;8.246;2022-08-19T05:47:13;21.00;99.90
19449;DHT22;9863;49.404;8.246;2022-08-19T05:52:13;20.60;99.90
19449;DHT22;9863;49.404;8.246;2022-08-19T05:54:46;21.10;99.90
19449;DHT22;9863;49.404;8.246;2022-08-19T05:57:19;21.00;99.90
19449;DHT22;9863;49.404;8.246;2022-08-19T06:02:30;21.10;99.90
19449;DHT22;9863;49.404;8.246;2022-08-19T06:12:28;21.30;99.90
19449;DHT22;9863;49.404;8.246;2022-08-19T06:15:09;21.30;99.90
19449;DHT22;9863;49.404;8.246;2022-08-19T06:17:39;21.40;99.90
19449;DHT22;9863;49.404;8.246;2022-08-19T06:20:09;21.20;99.90
19449;DHT22;9863;49.404;8.246;2022-08-19T06:22:43;21.50;99.90
19449;DHT22;9863;49.404;8.246;2022-08-19T06:25:13;21.60;99.90
19449;DHT22;9863;49.404;8.246;2022-08-19T06:30:30;21.80;99.90
19449;DHT22;9863;49.404;8.246;2022-08-19T06:48:04;22.20;99.90
19449;DHT22;9863;49.404;8.246;2022-08-19T06:58:03;22.20;99.90
19449;DHT22;9863;49.404;8.246;2022-08-19T07:05:40;22.50;99.90
19449;DHT22;9863;49.404;8.246;2022-08-19T07:08:13;22.50;99.90
19449;DHT22;9863;49.404;8.246;2022-08-19T07:10:45;22.30;99.90
19449;DHT22;9863;49.404;8.246;2022-08-19T07:20:39;22.60;99.90
19449;DHT22;9863;49.404;8.246;2022-08-19T07:30:52;22.90;99.90
19449;DHT22;9863;49.404;8.246;2022-08-19T07:35:49;23.00;99.90
19449;DHT22;9863;49.404;8.246;2022-08-19T07:53:12;23.40;99.90
19449;DHT22;9863;49.404;8.246;2022-08-19T07:58:15;23.40;99.90
19449;DHT22;9863;49.404;8.246;2022-08-19T08:00:46;23.40;99.90
19449;DHT22;9863;49.404;8.246;2022-08-19T08:03:17;23.40;99.90
19449;DHT22;9863;49.404;8.246;2022-08-19T08:11:15;23.60;99.90
19449;DHT22;9863;49.404;8.246;2022-08-19T08:16:28;23.80;99.90
19449;DHT22;9863;49.404;8.246;2022-08-19T08:21:48;24.00;99.90
19449;DHT22;9863;49.404;8.246;2022-08-19T08:24:17;24.00;99.90
19449;DHT22;9863;49.404;8.246;2022-08-19T08:44:53;24.40;99.90
19449;DHT22;9863;49.404;8.246;2022-08-19T08:47:32;24.40;99.90
19449;DHT22;9863;49.404;8.246;2022-08-19T08:50:12;24.80;99.90
19449;DHT22;9863;49.404;8.246;2022-08-19T08:52:50;23.00;99.90
19449;DHT22;9863;49.404;8.246;2022-08-19T08:55:24;24.90;99.90
19449;DHT22;9863;49.404;8.246;2022-08-19T08:58:11;24.50;99.90
19449;DHT22;9863;49.404;8.246;2022-08-19T09:00:46;24.60;99.90
19449;DHT22;9863;49.404;8.246;2022-08-19T09:03:26;25.00;99.90
19449;DHT22;9863;49.404;8.246;2022-08-19T09:06:10;24.60;99.90
19449;DHT22;9863;49.404;8.246;2022-08-19T09:08:55;24.80;99.90
19449;DHT22;9863;49.404;8.246;2022-08-19T09:11:56;24.70;99.90
19449;DHT22;9863;49.404;8.246;2022-08-19T09:15:00;25.10;99.90
19449;DHT22;9863;49.404;8.246;2022-08-19T09:17:31;25.40;99.90
19449;DHT22;9863;49.404;8.246;2022-08-19T09:22:39;25.30;99.90
19449;DHT22;9863;49.404;8.246;2022-08-19T09:25:14;25.30;99.90
19449;DHT22;9863;49.404;8.246;2022-08-19T09:27:56;25.40;99.90
19449;DHT22;9863;49.404;8.246;2022-08-19T09:30:38;25.60;99.90
19449;DHT22;9863;49.404;8.246;2022-08-19T09:33:08;25.70;99.90
19449;DHT22;9863;49.404;8.246;2022-08-19T09:38:20;25.70;99.90
19449;DHT22;9863;49.404;8.246;2022-08-19T09:43:17;25.60;99.90
19449;DHT22;9863;49.404;8.246;2022-08-19T09:46:06;26.30;99.90
19449;DHT22;9863;49.404;8.246;2022-08-19T09:48:40;26.70;99.90
19449;DHT22;9863;49.404;8.246;2022-08-19T09:51:15;26.50;99.90
19449;DHT22;9863;49.404;8.246;2022-08-19T09:53:50;26.90;99.90
19449;DHT22;9863;49.404;8.246;2022-08-19T09:56:20;26.50;99.90
19449;DHT22;9863;49.404;8.246;2022-08-19T09:58:51;26.80;99.90
19449;DHT22;9863;49.404;8.246;2022-08-19T10:01:21;26.80;99.90
19449;DHT22;9863;49.404;8.246;2022-08-19T10:03:54;27.00;99.90
19449;DHT22;9863;49.404;8.246;2022-08-19T10:06:25;27.10;99.90
19449;DHT22;9863;49.404;8.246;2022-08-19T10:09:15;26.50;99.90
19449;DHT22;9863;49.404;8.246;2022-08-19T10:12:02;26.90;99.90
19449;DHT22;9863;49.404;8.246;2022-08-19T10:17:02;27.00;99.90
19449;DHT22;9863;49.404;8.246;2022-08-19T10:19:46;27.60;99.90
19449;DHT22;9863;49.404;8.246;2022-08-19T10:22:22;27.10;99.90
19449;DHT22;9863;49.404;8.246;2022-08-19T10:24:53;27.40;99.90
19449;DHT22;9863;49.404;8.246;2022-08-19T10:27:22;27.20;99.90
19449;DHT22;9863;49.404;8.246;2022-08-19T10:29:53;27.30;99.90
19449;DHT22;9863;49.404;8.246;2022-08-19T10:32:21;27.10;99.90
19449;DHT22;9863;49.404;8.246;2022-08-19T10:35:02;27.90;99.90
19449;DHT22;9863;49.404;8.246;2022-08-19T10:37:36;27.90;99.90
19449;DHT22;9863;49.404;8.246;2022-08-19T10:42:54;27.90;99.90
19449;DHT22;9863;49.404;8.246;2022-08-19T10:47:55;28.10;99.90
19449;DHT22;9863;49.404;8.246;2022-08-19T10:58:25;27.90;99.90
19449;DHT22;9863;49.404;8.246;2022-08-19T11:00:56;28.60;99.90
19449;DHT22;9863;49.404;8.246;2022-08-19T11:03:26;29.10;99.90
19449;DHT22;9863;49.404;8.246;2022-08-19T11:06:03;28.80;99.90
19449;DHT22;9863;49.404;8.246;2022-08-19T11:08:35;29.10;99.90
19449;DHT22;9863;49.404;8.246;2022-08-19T11:11:06;29.20;99.90
19449;DHT22;9863;49.404;8.246;2022-08-19T11:13:37;28.80;99.90
19449;DHT22;9863;49.404;8.246;2022-08-19T11:16:11;28.90;99.90
19449;DHT22;9863;49.404;8.246;2022-08-19T11:18:52;29.00;99.90
19449;DHT22;9863;49.404;8.246;2022-08-19T11:21:24;27.90;99.90
19449;DHT22;9863;49.404;8.246;2022-08-19T11:23:56;28.60;99.90
19449;DHT22;9863;49.404;8.246;2022-08-19T11:26:29;28.90;99.90
19449;DHT22;9863;49.404;8.246;2022-08-19T11:28:58;29.10;99.90
19449;DHT22;9863;49.404;8.246;2022-08-19T11:31:30;29.70;99.90
19449;DHT22;9863;49.404;8.246;2022-08-19T11:34:01;29.60;99.90
19449;DHT22;9863;49.404;8.246;2022-08-19T11:36:33;29.70;99.90
19449;DHT22;9863;49.404;8.246;2022-08-19T11:39:03;29.40;99.90
19449;DHT22;9863;49.404;8.246;2022-08-19T11:41:32;29.80;99.90
19449;DHT22;9863;49.404;8.246;2022-08-19T11:44:00;29.80;99.90
19449;DHT22;9863;49.404;8.246;2022-08-19T11:46:31;30.80;99.90
19449;DHT22;9863;49.404;8.246;2022-08-19T11:49:00;29.70;99.90
19449;DHT22;9863;49.404;8.246;2022-08-19T11:51:31;29.80;99.90
19449;DHT22;9863;49.404;8.246;2022-08-19T11:53:59;29.90;99.90
19449;DHT22;9863;49.404;8.246;2022-08-19T11:56:28;29.90;99.90
19449;DHT22;9863;49.404;8.246;2022-08-19T11:58:56;29.70;99.90
19449;DHT22;9863;49.404;8.246;2022-08-19T12:01:26;30.20;99.90
19449;DHT22;9863;49.404;8.246;2022-08-19T12:03:55;30.10;99.90
19449;DHT22;9863;49.404;8.246;2022-08-19T12:06:29;30.40;99.90
19449;DHT22;9863;49.404;8.246;2022-08-19T12:09:03;31.60;99.90
19449;DHT22;9863;49.404;8.246;2022-08-19T12:11:32;30.60;99.90
19449;DHT22;9863;49.404;8.246;2022-08-19T12:14:01;30.50;99.90
19449;DHT22;9863;49.404;8.246;2022-08-19T12:16:30;30.80;99.90
19449;DHT22;9863;49.404;8.246;2022-08-19T12:21:33;30.50;99.90
19449;DHT22;9863;49.404;8.246;2022-08-19T12:24:05;30.60;99.60
19449;DHT22;9863;49.404;8.246;2022-08-19T12:26:34;30.60;99.90
19449;DHT22;9863;49.404;8.246;2022-08-19T12:29:21;30.80;99.60
19449;DHT22;9863;49.404;8.246;2022-08-19T12:31:51;30.10;99.90
19449;DHT22;9863;49.404;8.246;2022-08-19T12:39:17;31.60;99.90
19449;DHT22;9863;49.404;8.246;2022-08-19T12:41:45;31.70;99.90
19449;DHT22;9863;49.404;8.246;2022-08-19T12:44:22;30.70;99.90
19449;DHT22;9863;49.404;8.246;2022-08-19T12:46:56;30.30;99.90
19449;DHT22;9863;49.404;8.246;2022-08-19T12:49:26;31.30;99.90
19449;DHT22;9863;49.404;8.246;2022-08-19T12:52:15;30.50;99.90
19449;DHT22;9863;49.404;8.246;2022-08-19T12:54:51;30.20;99.90
19449;DHT22;9863;49.404;8.246;2022-08-19T12:57:24;30.10;99.90
19449;DHT22;9863;49.404;8.246;2022-08-19T13:00:08;30.10;99.90
19449;DHT22;9863;49.404;8.246;2022-08-19T13:02:44;29.90;99.90
19449;DHT22;9863;49.404;8.246;2022-08-19T13:05:15;30.60;98.80
19449;DHT22;9863;49.404;8.246;2022-08-19T13:07:44;30.70;99.90
19449;DHT22;9863;49.404;8.246;2022-08-19T13:10:15;31.50;98.60
19449;DHT22;9863;49.404;8.246;2022-08-19T13:12:48;31.30;99.20
19449;DHT22;9863;49.404;8.246;2022-08-19T13:15:19;30.60;97.60
19449;DHT22;9863;49.404;8.246;2022-08-19T13:17:52;31.60;98.60
19449;DHT22;9863;49.404;8.246;2022-08-19T13:20:21;31.60;99.00
19449;DHT22;9863;49.404;8.246;2022-08-19T13:27:49;30.40;96.20
19449;DHT22;9863;49.404;8.246;2022-08-19T13:30:19;30.60;97.30
19449;DHT22;9863;49.404;8.246;2022-08-19T13:33:08;30.60;95.50
19449;DHT22;9863;49.404;8.246;2022-08-19T13:35:46;30.40;98.30
19449;DHT22;9863;49.404;8.246;2022-08-19T13:38:20;30.00;99.10
19449;DHT22;9863;49.404;8.246;2022-08-19T13:40:49;29.60;98.80
19449;DHT22;9863;49.404;8.246;2022-08-19T13:43:20;30.80;99.90
19449;DHT22;9863;49.404;8.246;2022-08-19T13:45:54;30.90;96.70
19449;DHT22;9863;49.404;8.246;2022-08-19T13:48:25;30.80;97.10
19449;DHT22;9863;49.404;8.246;2022-08-19T13:53:24;31.40;98.90
19449;DHT22;9863;49.404;8.246;2022-08-19T13:55:52;31.40;97.90
19449;DHT22;9863;49.404;8.246;2022-08-19T13:58:21;30.50;97.00
19449;DHT22;9863;49.404;8.246;2022-08-19T14:00:50;29.50;97.90
19449;DHT22;9863;49.404;8.246;2022-08-19T14:03:18;29.90;99.60
19449;DHT22;9863;49.404;8.246;2022-08-19T14:05:46;29.00;99.70
19449;DHT22;9863;49.404;8.246;2022-08-19T14:10:42;30.00;99.00
19449;DHT22;9863;49.404;8.246;2022-08-19T14:13:18;29.40;99.90
19449;DHT22;9863;49.404;8.246;2022-08-19T14:15:48;29.90;98.20
19449;DHT22;9863;49.404;8.246;2022-08-19T14:18:17;29.40;99.90
19449;DHT22;9863;49.404;8.246;2022-08-19T14:20:46;30.60;99.90
19449;DHT22;9863;49.404;8.246;2022-08-19T14:23:14;29.90;99.90
19449;DHT22;9863;49.404;8.246;2022-08-19T14:25:42;30.10;99.90
19449;DHT22;9863;49.404;8.246;2022-08-19T14:28:10;29.20;99.60
19449;DHT22;9863;49.404;8.246;2022-08-19T14:30:38;30.10;98.90
19449;DHT22;9863;49.404;8.246;2022-08-19T14:33:06;29.30;99.90
19449;DHT22;9863;49.404;8.246;2022-08-19T14:35:36;28.80;99.90
19449;DHT22;9863;49.404;8.246;2022-08-19T14:38:05;29.30;99.80
19449;DHT22;9863;49.404;8.246;2022-08-19T14:43:04;29.10;99.30
19449;DHT22;9863;49.404;8.246;2022-08-19T14:45:36;28.80;99.80
19449;DHT22;9863;49.404;8.246;2022-08-19T14:48:08;29.40;99.90
19449;DHT22;9863;49.404;8.246;2022-08-19T14:53:15;30.00;98.40
19449;DHT22;9863;49.404;8.246;2022-08-19T14:55:45;27.40;96.90
19449;DHT22;9863;49.404;8.246;2022-08-19T15:01:00;30.30;99.90
19449;DHT22;9863;49.404;8.246;2022-08-19T15:03:29;30.90;99.90
19449;DHT22;9863;49.404;8.246;2022-08-19T15:06:03;30.10;97.90
19449;DHT22;9863;49.404;8.246;2022-08-19T15:08:34;29.80;98.10
19449;DHT22;9863;49.404;8.246;2022-08-19T15:11:08;29.30;99.90
19449;DHT22;9863;49.404;8.246;2022-08-19T15:13:37;29.50;98.40
19449;DHT22;9863;49.404;8.246;2022-08-19T15:16:07;30.60;99.90
19449;DHT22;9863;49.404;8.246;2022-08-19T15:18:46;29.20;99.90
19449;DHT22;9863;49.404;8.246;2022-08-19T15:21:18;29.80;99.90
19449;DHT22;9863;49.404;8.246;2022-08-19T15:23:55;28.50;99.90
19449;DHT22;9863;49.404;8.246;2022-08-19T15:26:24;29.00;99.00
19449;DHT22;9863;49.404;8.246;2022-08-19T15:28:58;29.10;98.00
19449;DHT22;9863;49.404;8.246;2022-08-19T15:31:30;29.20;98.60
19449;DHT22;9863;49.404;8.246;2022-08-19T15:34:05;29.60;99.90
19449;DHT22;9863;49.404;8.246;2022-08-19T15:39:04;29.50;98.50
19449;DHT22;9863;49.404;8.246;2022-08-19T15:44:06;29.30;99.00
19449;DHT22;9863;49.404;8.246;2022-08-19T15:46:40;29.50;99.60
19449;DHT22;9863;49.404;8.246;2022-08-19T15:49:11;29.60;99.00
19449;DHT22;9863;49.404;8.246;2022-08-19T15:51:42;29.70;99.30
19449;DHT22;9863;49.404;8.246;2022-08-19T15:54:14;29.70;98.10
19449;DHT22;9863;49.404;8.246;2022-08-19T15:59:32;30.00;99.90
19449;DHT22;9863;49.404;8.246;2022-08-19T16:02:21;30.30;97.10
19449;DHT22;9863;49.404;8.246;2022-08-19T16:05:15;29.80;97.90
19449;DHT22;9863;49.404;8.246;2022-08-19T16:08:04;29.40;98.60
19449;DHT22;9863;49.404;8.246;2022-08-19T16:10:32;29.70;97.80
19449;DHT22;9863;49.404;8.246;2022-08-19T16:13:00;30.00;99.50
19449;DHT22;9863;49.404;8.246;2022-08-19T16:15:29;29.50;99.50
19449;DHT22;9863;49.404;8.246;2022-08-19T16:17:58;29.90;98.00
19449;DHT22;9863;49.404;8.246;2022-08-19T16:20:29;30.60;99.50
19449;DHT22;9863;49.404;8.246;2022-08-19T16:22:59;29.70;97.20
19449;DHT22;9863;49.404;8.246;2022-08-19T16:25:29;29.40;97.90
19449;DHT22;9863;49.404;8.246;2022-08-19T16:30:38;29.60;98.10
19449;DHT22;9863;49.404;8.246;2022-08-19T16:33:09;29.70;98.20
19449;DHT22;9863;49.404;8.246;2022-08-19T16:38:05;29.10;97.40
19449;DHT22;9863;49.404;8.246;2022-08-19T16:40:34;29.00;98.20
19449;DHT22;9863;49.404;8.246;2022-08-19T16:43:02;29.00;97.80
19449;DHT22;9863;49.404;8.246;2022-08-19T16:45:30;29.60;99.70
19449;DHT22;9863;49.404;8.246;2022-08-19T16:47:58;28.90;98.60
19449;DHT22;9863;49.404;8.246;2022-08-19T16:50:26;29.00;98.80
19449;DHT22;9863;49.404;8.246;2022-08-19T16:53:21;29.10;97.50
19449;DHT22;9863;49.404;8.246;2022-08-19T16:55:55;28.90;99.10
19449;DHT22;9863;49.404;8.246;2022-08-19T16:58:25;29.00;98.90
19449;DHT22;9863;49.404;8.246;2022-08-19T17:00:56;29.40;98.40
19449;DHT22;9863;49.404;8.246;2022-08-19T17:03:31;28.90;99.10
19449;DHT22;9863;49.404;8.246;2022-08-19T17:06:12;28.80;99.40
19449;DHT22;9863;49.404;8.246;2022-08-19T17:08:49;28.50;97.60
19449;DHT22;9863;49.404;8.246;2022-08-19T17:11:18;28.70;99.00
19449;DHT22;9863;49.404;8.246;2022-08-19T17:13:48;26.20;97.40
19449;DHT22;9863;49.404;8.246;2022-08-19T17:16:19;28.50;99.90
19449;DHT22;9863;49.404;8.246;2022-08-19T17:18:52;28.70;99.00
19449;DHT22;9863;49.404;8.246;2022-08-19T17:21:26;28.70;99.90
19449;DHT22;9863;49.404;8.246;2022-08-19T17:23:56;28.90;99.90
19449;DHT22;9863;49.404;8.246;2022-08-19T17:26:28;28.40;99.90
19449;DHT22;9863;49.404;8.246;2022-08-19T17:28:58;29.70;99.90
19449;DHT22;9863;49.404;8.246;2022-08-19T17:31:28;28.40;99.90
19449;DHT22;9863;49.404;8.246;2022-08-19T17:33:57;28.30;99.90
19449;DHT22;9863;49.404;8.246;2022-08-19T17:36:28;28.30;99.90
19449;DHT22;9863;49.404;8.246;2022-08-19T17:39:00;28.30;99.90
19449;DHT22;9863;49.404;8.246;2022-08-19T17:41:29;27.60;99.90
19449;DHT22;9863;49.404;8.246;2022-08-19T17:46:25;28.10;99.90
19449;DHT22;9863;49.404;8.246;2022-08-19T17:48:55;27.70;99.90
19449;DHT22;9863;49.404;8.246;2022-08-19T17:51:45;28.10;99.90
19449;DHT22;9863;49.404;8.246;2022-08-19T17:54:16;27.90;99.90
19449;DHT22;9863;49.404;8.246;2022-08-19T17:56:46;27.70;99.90
19449;DHT22;9863;49.404;8.246;2022-08-19T17:59:14;28.10;99.90
19449;DHT22;9863;49.404;8.246;2022-08-19T18:01:44;28.10;99.90
19449;DHT22;9863;49.404;8.246;2022-08-19T18:04:24;28.20;99.90
19449;DHT22;9863;49.404;8.246;2022-08-19T18:06:53;27.60;99.90
19449;DHT22;9863;49.404;8.246;2022-08-19T18:09:24;28.00;99.90
19449;DHT22;9863;49.404;8.246;2022-08-19T18:11:55;28.10;99.90
19449;DHT22;9863;49.404;8.246;2022-08-19T18:14:27;28.00;99.90
19449;DHT22;9863;49.404;8.246;2022-08-19T18:17:03;27.80;99.90
19449;DHT22;9863;49.404;8.246;2022-08-19T18:19:40;27.90;99.90
19449;DHT22;9863;49.404;8.246;2022-08-19T18:22:27;27.90;99.90
19449;DHT22;9863;49.404;8.246;2022-08-19T18:32:30;27.60;99.90
19449;DHT22;9863;49.404;8.246;2022-08-19T18:35:02;27.70;99.90
19449;DHT22;9863;49.404;8.246;2022-08-19T18:37:39;27.70;99.90
19449;DHT22;9863;49.404;8.246;2022-08-19T18:40:10;27.60;99.90
19449;DHT22;9863;49.404;8.246;2022-08-19T18:43:03;27.30;99.90
19449;DHT22;9863;49.404;8.246;2022-08-19T18:45:38;27.30;99.90
19449;DHT22;9863;49.404;8.246;2022-08-19T18:48:26;27.10;99.90
19449;DHT22;9863;49.404;8.246;2022-08-19T18:51:14;27.20;99.90
19449;DHT22;9863;49.404;8.246;2022-08-19T18:53:45;27.30;99.90
19449;DHT22;9863;49.404;8.246;2022-08-19T18:56:15;26.80;99.90
19449;DHT22;9863;49.404;8.246;2022-08-19T18:58:46;27.10;99.90
19449;DHT22;9863;49.404;8.246;2022-08-19T19:01:24;26.60;99.90
19449;DHT22;9863;49.404;8.246;2022-08-19T19:04:06;26.50;99.90
19449;DHT22;9863;49.404;8.246;2022-08-19T19:06:40;26.40;99.90
19449;DHT22;9863;49.404;8.246;2022-08-19T19:09:12;26.80;99.90
19449;DHT22;9863;49.404;8.246;2022-08-19T19:11:46;26.20;99.90
19449;DHT22;9863;49.404;8.246;2022-08-19T19:14:23;26.20;99.90
19449;DHT22;9863;49.404;8.246;2022-08-19T19:17:14;25.90;99.90
19449;DHT22;9863;49.404;8.246;2022-08-19T19:19:42;26.10;99.90
19449;DHT22;9863;49.404;8.246;2022-08-19T19:22:13;26.00;99.90
19449;DHT22;9863;49.404;8.246;2022-08-19T19:24:44;26.00;99.90
19449;DHT22;9863;49.404;8.246;2022-08-19T19:27:14;25.90;99.90
19449;DHT22;9863;49.404;8.246;2022-08-19T19:29:42;25.80;99.90
19449;DHT22;9863;49.404;8.246;2022-08-19T19:32:23;26.20;99.90
19449;DHT22;9863;49.404;8.246;2022-08-19T19:34:54;25.50;99.90
19449;DHT22;9863;49.404;8.246;2022-08-19T19:37:23;25.20;99.90
19449;DHT22;9863;49.404;8.246;2022-08-19T19:39:50;24.80;99.90
19449;DHT22;9863;49.404;8.246;2022-08-19T19:42:21;25.40;99.90
19449;DHT22;9863;49.404;8.246;2022-08-19T19:44:52;25.30;99.90
19449;DHT22;9863;49.404;8.246;2022-08-19T19:47:22;25.20;99.90
19449;DHT22;9863;49.404;8.246;2022-08-19T19:52:43;25.30;99.90
19449;DHT22;9863;49.404;8.246;2022-08-19T19:55:13;24.90;99.90
19449;DHT22;9863;49.404;8.246;2022-08-19T19:57:45;24.90;99.90
19449;DHT22;9863;49.404;8.246;2022-08-19T20:00:16;25.00;99.90
19449;DHT22;9863;49.404;8.246;2022-08-19T20:02:46;24.20;99.90
19449;DHT22;9863;49.404;8.246;2022-08-19T20:05:18;24.60;99.90
19449;DHT22;9863;49.404;8.246;2022-08-19T20:07:51;24.50;99.90
19449;DHT22;9863;49.404;8.246;2022-08-19T20:10:41;24.50;99.90
19449;DHT22;9863;49.404;8.246;2022-08-19T20:15:41;24.20;99.90
19449;DHT22;9863;49.404;8.246;2022-08-19T20:18:11;24.30;99.90
19449;DHT22;9863;49.404;8.246;2022-08-19T20:20:42;24.10;99.90
19449;DHT22;9863;49.404;8.246;2022-08-19T20:23:10;24.50;99.90
19449;DHT22;9863;49.404;8.246;2022-08-19T20:28:07;24.10;99.90
19449;DHT22;9863;49.404;8.246;2022-08-19T20:33:10;24.20;99.90
19449;DHT22;9863;49.404;8.246;2022-08-19T20:43:12;23.80;99.90
19449;DHT22;9863;49.404;8.246;2022-08-19T20:45:40;23.70;99.90
19449;DHT22;9863;49.404;8.246;2022-08-19T20:48:08;23.70;99.90
19449;DHT22;9863;49.404;8.246;2022-08-19T20:50:38;23.70;99.90
19449;DHT22;9863;49.404;8.246;2022-08-19T20:53:16;23.60;99.90
19449;DHT22;9863;49.404;8.246;2022-08-19T20:55:47;23.60;99.90
19449;DHT22;9863;49.404;8.246;2022-08-19T20:58:19;23.60;99.90
19449;DHT22;9863;49.404;8.246;2022-08-19T21:00:53;23.50;99.90
19449;DHT22;9863;49.404;8.246;2022-08-19T21:03:28;23.40;99.90
19449;DHT22;9863;49.404;8.246;2022-08-19T21:05:58;23.50;99.90
19449;DHT22;9863;49.404;8.246;2022-08-19T21:08:26;23.40;99.90
19449;DHT22;9863;49.404;8.246;2022-08-19T21:10:56;23.40;99.90
19449;DHT22;9863;49.404;8.246;2022-08-19T21:15:53;23.40;99.90
19449;DHT22;9863;49.404;8.246;2022-08-19T21:18:22;23.20;99.90
19449;DHT22;9863;49.404;8.246;2022-08-19T21:20:53;23.20;99.90
19449;DHT22;9863;49.404;8.246;2022-08-19T21:23:24;23.10;99.90
19449;DHT22;9863;49.404;8.246;2022-08-19T21:25:55;23.10;99.90
19449;DHT22;9863;49.404;8.246;2022-08-19T21:28:25;23.00;99.90
19449;DHT22;9863;49.404;8.246;2022-08-19T21:31:04;23.10;99.90
19449;DHT22;9863;49.404;8.246;2022-08-19T21:33:33;22.30;99.90
19449;DHT22;9863;49.404;8.246;2022-08-19T21:38:30;22.60;99.90
19449;DHT22;9863;49.404;8.246;2022-08-19T21:41:00;22.80;99.90
19449;DHT22;9863;49.404;8.246;2022-08-19T21:43:36;22.80;99.90
19449;DHT22;9863;49.404;8.246;2022-08-19T21:46:05;23.60;99.90
19449;DHT22;9863;49.404;8.246;2022-08-19T21:48:34;22.70;99.90
19449;DHT22;9863;49.404;8.246;2022-08-19T21:56:02;22.60;99.90
19449;DHT22;9863;49.404;8.246;2022-08-19T22:01:00;22.10;99.90
19449;DHT22;9863;49.404;8.246;2022-08-19T22:03:33;22.40;99.90
19449;DHT22;9863;49.404;8.246;2022-08-19T22:08:31;22.20;99.90
19449;DHT22;9863;49.404;8.246;2022-08-19T22:13:29;22.30;99.90
19449;DHT22;9863;49.404;8.246;2022-08-19T22:35:52;22.10;99.90
19449;DHT22;9863;49.404;8.246;2022-08-19T22:38:21;22.20;99.90
19449;DHT22;9863;49.404;8.246;2022-08-19T22:40:50;22.20;99.90
19449;DHT22;9863;49.404;8.246;2022-08-19T22:43:21;22.10;99.90
19449;DHT22;9863;49.404;8.246;2022-08-19T22:45:53;22.10;99.90
19449;DHT22;9863;49.404;8.246;2022-08-19T22:48:24;22.10;99.90